Time;durP1;ratioP1;P1;durP2;ratioP2;P2;SDS_P1;SDS_P2;PMS_P1;PMS_P2;Temp;Humidity;BMP_temperature;BMP_pressure;BME280_temperature;BME280_humidity;BME280_pressure;Samples;Min_cycle;Max_cycle;Signal;HPM_P1;HPM_P2
2022/07/14 00:01:17;;;;;;;3.75;1.40;;;23.90;60.30;;;24.23;85.82;100696.09;4857834;29;20049;-79
2022/07/14 00:03:44;;;;;;;1.95;1.33;;;23.90;60.70;;;24.14;85.85;100692.28;4857995;29;20049;-79
2022/07/14 00:06:12;;;;;;;1.75;1.23;;;23.80;60.60;;;24.04;85.41;100697.47;4858021;29;20565;-78
2022/07/14 00:08:39;;;;;;;6.60;1.77;;;23.80;60.70;;;24.01;85.82;100692.28;4874850;29;20062;-79
2022/07/14 00:11:06;;;;;;;2.92;1.50;;;23.80;60.60;;;23.97;87.91;100691.69;4862950;29;20075;-78
2022/07/14 00:13:34;;;;;;;5.20;1.55;;;23.70;61.20;;;24.03;85.22;100690.38;4893777;29;20058;-80
2022/07/14 00:16:02;;;;;;;2.50;1.70;;;23.70;60.90;;;23.84;84.88;100686.38;4916651;28;20046;-80
2022/07/14 00:18:30;;;;;;;3.28;1.50;;;23.70;60.80;;;23.74;89.25;100688.91;4987522;28;20128;-78
2022/07/14 00:20:57;;;;;;;2.90;1.48;;;23.60;61.40;;;23.53;93.16;100683.28;4974844;28;20094;-79
2022/07/14 00:23:24;;;;;;;2.20;1.38;;;23.50;62.10;;;23.45;98.43;100696.44;4976026;28;20104;-81
2022/07/14 00:25:51;;;;;;;4.30;1.48;;;23.40;63.30;;;23.30;100.00;100693.03;4977569;28;20049;-79
2022/07/14 00:28:18;;;;;;;3.63;1.95;;;23.30;64.60;;;23.16;100.00;100685.97;4976331;28;20065;-79
2022/07/14 00:30:49;;;;;;;3.33;1.88;;;23.20;64.40;;;23.11;100.00;100688.97;4990398;28;20046;-80
2022/07/14 00:33:16;;;;;;;3.28;1.88;;;23.10;64.80;;;23.07;100.00;100690.16;4990428;28;20089;-79
2022/07/14 00:35:43;;;;;;;2.40;1.83;;;23.20;65.60;;;22.94;100.00;100692.84;4958483;28;20467;-79
2022/07/14 00:38:10;;;;;;;2.65;1.67;;;22.90;66.20;;;22.88;100.00;100688.81;4990565;28;20054;-79
2022/07/14 00:40:37;;;;;;;5.57;1.55;;;22.80;67.30;;;22.91;100.00;100679.66;4974102;28;20451;-79
2022/07/14 00:43:04;;;;;;;5.00;1.70;;;22.80;68.00;;;22.88;100.00;100678.06;4973597;28;20073;-80
2022/07/14 00:45:32;;;;;;;5.10;2.05;;;22.70;68.90;;;22.85;100.00;100680.13;4974542;28;20058;-78
2022/07/14 00:47:59;;;;;;;5.22;1.80;;;22.70;69.20;;;22.72;100.00;100667.56;4974293;28;20042;-80
2022/07/14 00:50:26;;;;;;;4.10;1.77;;;22.70;70.00;;;22.71;100.00;100671.22;4957711;28;20411;-79
2022/07/14 00:52:54;;;;;;;3.67;1.85;;;22.60;70.50;;;22.75;100.00;100666.50;4973480;28;20046;-80
2022/07/14 00:55:21;;;;;;;4.07;1.98;;;22.50;71.50;;;22.83;100.00;100671.31;4984243;28;20064;-80
2022/07/14 00:57:48;;;;;;;6.18;2.40;;;22.50;71.20;;;22.73;100.00;100671.13;4973557;28;20042;-80
2022/07/14 01:01:17;;;;;;;2.67;1.80;;;22.50;72.50;;;22.55;100.00;100666.06;4992175;28;20049;-78
2022/07/14 01:08:45;;;;;;;5.28;1.90;;;22.30;74.90;;;22.31;100.00;100672.16;4980483;28;20046;-78
2022/07/14 01:12:45;;;;;;;4.68;1.88;;;22.30;77.30;;;22.27;100.00;100672.47;4940662;28;20058;-78
2022/07/14 01:15:57;;;;;;;5.18;2.72;;;22.10;79.10;;;22.09;100.00;100675.44;4982430;28;20133;-78
2022/07/14 01:19:24;;;;;;;3.88;2.10;;;22.00;79.90;;;22.02;100.00;100677.66;4960758;28;20058;-80
2022/07/14 01:23:21;;;;;;;3.10;1.98;;;22.00;82.60;;;21.85;100.00;100669.91;4972729;28;20133;-79
2022/07/14 01:26:51;;;;;;;4.78;2.13;;;21.80;83.80;;;21.94;100.00;100678.19;4962534;28;20122;-79
2022/07/14 01:31:00;;;;;;;4.28;2.00;;;21.70;84.70;;;21.77;100.00;100676.63;4976035;28;20058;-79
2022/07/14 01:34:17;;;;;;;3.78;2.17;;;21.70;86.50;;;21.68;100.00;100672.75;4917798;28;20047;-79
2022/07/14 01:37:24;;;;;;;5.18;1.80;;;21.60;87.20;;;21.65;100.00;100680.97;4937364;29;20051;-79
2022/07/14 01:45:13;;;;;;;3.60;2.15;;;21.60;88.80;;;21.91;100.00;100674.84;4943878;29;20067;-80
2022/07/14 01:47:41;;;;;;;4.25;2.00;;;21.60;87.80;;;21.99;100.00;100671.66;4928591;29;20054;-81
2022/07/14 01:50:09;;;;;;;2.83;2.20;;;21.70;88.10;;;21.81;100.00;100669.25;4944226;29;20075;-81
2022/07/14 01:52:39;;;;;;;6.07;2.45;;;21.70;89.10;;;21.74;100.00;100663.44;4930243;29;20051;-79
2022/07/14 01:55:08;;;;;;;6.13;2.00;;;21.80;89.50;;;21.58;100.00;100668.06;4928393;29;20689;-81
2022/07/14 01:57:36;;;;;;;3.75;1.48;;;21.60;90.00;;;21.46;100.00;100667.91;4929127;29;20078;-79
2022/07/14 02:00:05;;;;;;;9.68;2.80;;;21.30;90.20;;;21.47;100.00;100668.78;4928322;29;20086;-80
2022/07/14 02:02:32;;;;;;;4.53;1.98;;;21.40;90.20;;;21.60;100.00;100668.81;4928226;29;20107;-79
2022/07/14 02:05:00;;;;;;;3.92;1.92;;;21.40;90.40;;;21.52;100.00;100667.53;4964628;28;20097;-78
2022/07/14 02:07:28;;;;;;;4.80;1.85;;;21.40;90.50;;;21.41;100.00;100650.44;4981309;28;20114;-79
2022/07/14 02:12:52;;;;;;;4.00;2.25;;;21.30;90.70;;;21.59;100.00;100651.03;4968074;28;20060;-81
2022/07/14 02:15:19;;;;;;;4.38;2.05;;;21.30;90.70;;;21.54;100.00;100649.53;4965489;28;20047;-80
2022/07/14 02:17:48;;;;;;;4.40;2.08;;;21.40;90.70;;;21.49;100.00;100642.75;4965734;28;20097;-80
2022/07/14 02:20:18;;;;;;;7.05;2.00;;;21.40;90.80;;;21.56;100.00;100648.56;4966326;28;20085;-80
2022/07/14 02:22:47;;;;;;;3.38;1.77;;;21.30;91.00;;;21.57;100.00;100652.97;4966289;28;20047;-80
2022/07/14 02:25:14;;;;;;;5.15;2.35;;;21.30;90.60;;;21.32;100.00;100646.56;4984130;28;20062;-80
2022/07/14 02:27:41;;;;;;;5.45;2.13;;;21.30;90.60;;;21.21;100.00;100650.78;4963886;28;20089;-78
2022/07/14 02:30:38;;;;;;;2.35;1.90;;;21.20;91.10;;;20.97;100.00;100646.03;4979559;28;20133;-78
2022/07/14 02:33:48;;;;;;;3.45;2.13;;;21.10;91.40;;;21.05;100.00;100647.38;4957991;28;20050;-78
2022/07/14 02:36:32;;;;;;;3.20;1.98;;;21.00;91.30;;;20.92;100.00;100645.47;4982899;28;20034;-78
2022/07/14 02:39:16;;;;;;;12.25;2.88;;;20.90;91.00;;;21.10;100.00;100647.94;4996339;28;20054;-79
2022/07/14 02:41:43;;;;;;;5.28;2.70;;;20.90;91.10;;;21.11;100.00;100649.66;4949055;28;20062;-78
2022/07/14 02:44:14;;;;;;;4.03;2.08;;;20.70;91.00;;;20.99;100.00;100647.75;4996678;28;20039;-78
2022/07/14 02:46:42;;;;;;;5.82;2.30;;;21.00;91.20;;;21.08;100.00;100645.38;4986730;28;20078;-78
2022/07/14 02:49:09;;;;;;;3.22;2.20;;;20.90;90.80;;;21.05;100.00;100647.38;4974781;28;20078;-78
2022/07/14 02:51:40;;;;;;;4.30;2.80;;;20.90;90.80;;;21.21;100.00;100655.25;4959374;28;20651;-79
2022/07/14 02:54:07;;;;;;;3.60;2.50;;;20.90;91.20;;;21.26;100.00;100658.53;4976195;28;20077;-78
2022/07/14 02:56:35;;;;;;;4.47;2.40;;;20.90;91.00;;;21.26;100.00;100661.19;4993159;28;20039;-79
2022/07/14 02:59:07;;;;;;;7.65;1.90;;;20.90;91.10;;;20.98;100.00;100660.28;4975317;28;20054;-80
2022/07/14 03:01:39;;;;;;;5.18;1.98;;;20.90;91.60;;;20.67;100.00;100656.81;5006892;28;20106;-79
2022/07/14 03:04:09;;;;;;;6.07;2.60;;;20.80;91.90;;;20.62;100.00;100654.44;4966520;28;20147;-79
2022/07/14 03:06:37;;;;;;;3.85;1.80;;;20.70;92.30;;;20.47;100.00;100658.91;4957075;28;20460;-79
2022/07/14 03:09:07;;;;;;;5.03;2.22;;;20.60;92.40;;;20.43;100.00;100656.53;4971210;28;20050;-78
2022/07/14 03:11:34;;;;;;;4.20;2.03;;;20.50;92.70;;;20.31;100.00;100648.28;4978038;28;20512;-79
2022/07/14 03:14:01;;;;;;;3.70;2.20;;;20.40;92.90;;;20.18;100.00;100650.84;4958747;28;20049;-78
2022/07/14 03:16:29;;;;;;;3.03;2.35;;;20.50;93.20;;;20.25;100.00;100656.69;4979466;28;20137;-79
2022/07/14 03:19:18;;;;;;;2.55;1.63;;;20.20;93.20;;;20.09;100.00;100654.06;4995176;28;20133;-79
2022/07/14 03:30:34;;;;;;;7.38;2.20;;;20.00;93.80;;;20.10;100.00;100667.34;4936964;29;20130;-78
2022/07/14 03:33:34;;;;;;;2.42;1.98;;;20.00;93.80;;;20.16;100.00;100674.13;4905992;29;20052;-78
2022/07/14 03:36:10;;;;;;;4.68;2.13;;;19.90;93.90;;;19.95;100.00;100677.09;4938265;29;20051;-77
2022/07/14 03:39:06;;;;;;;4.65;2.35;;;20.00;94.00;;;19.60;100.00;100668.47;4876121;29;20105;-79
2022/07/14 03:42:23;;;;;;;3.25;2.42;;;19.80;94.40;;;19.72;100.00;100669.56;4851778;29;20056;-77
2022/07/14 03:44:51;;;;;;;3.90;2.05;;;19.70;94.30;;;19.73;100.00;100668.59;4873997;29;20056;-77
2022/07/14 03:47:18;;;;;;;3.20;2.00;;;19.70;94.40;;;19.69;100.00;100675.91;4871779;29;20053;-77
2022/07/14 03:49:45;;;;;;;3.25;1.88;;;19.60;94.50;;;19.63;100.00;100673.63;4861207;29;20144;-77
2022/07/14 03:52:18;;;;;;;4.95;2.08;;;19.60;94.70;;;19.64;100.00;100675.34;4861572;29;20089;-77
2022/07/14 03:54:46;;;;;;;4.05;2.30;;;19.50;94.60;;;19.55;100.00;100672.22;4860378;29;20053;-77
2022/07/14 03:57:17;;;;;;;3.72;2.45;;;19.50;94.50;;;19.58;100.00;100679.22;4886264;29;20052;-79
2022/07/14 03:59:45;;;;;;;4.20;2.33;;;19.50;94.70;;;19.64;100.00;100672.66;4913791;29;20044;-77
2022/07/14 04:02:15;;;;;;;4.68;2.33;;;19.50;94.50;;;19.59;100.00;100683.59;4910689;29;20541;-77
2022/07/14 04:04:43;;;;;;;3.42;2.00;;;19.90;94.60;;;19.75;100.00;100685.38;4913517;29;20043;-78
2022/07/14 04:07:10;;;;;;;4.72;2.72;;;19.50;94.30;;;19.76;100.00;100685.31;4916484;29;20055;-78
2022/07/14 04:09:37;;;;;;;2.45;2.05;;;19.60;94.50;;;19.62;100.00;100690.56;4917799;29;20106;-79
2022/07/14 04:12:06;;;;;;;2.83;2.08;;;19.60;94.70;;;19.56;100.00;100686.44;4904055;29;20534;-79
2022/07/14 04:14:38;;;;;;;6.47;2.90;;;19.20;94.50;;;19.45;100.00;100673.72;4920156;29;20095;-81
2022/07/14 04:17:05;;;;;;;3.58;2.10;;;19.50;94.60;;;19.51;100.00;100677.81;4946962;28;20050;-79
2022/07/14 04:19:34;;;;;;;2.97;2.00;;;19.50;94.40;;;19.56;100.00;100689.13;4956387;28;20074;-80
2022/07/14 04:22:01;;;;;;;2.75;2.15;;;19.50;94.40;;;19.57;100.00;100698.84;4956791;28;20399;-79
2022/07/14 04:24:48;;;;;;;5.82;2.28;;;19.40;94.30;;;19.76;100.00;100703.13;4958792;28;20042;-79
2022/07/14 04:27:16;;;;;;;4.63;2.38;;;19.50;94.10;;;19.74;100.00;100697.84;4947809;28;20039;-79
2022/07/14 04:29:46;;;;;;;5.63;2.97;;;19.50;94.00;;;19.80;100.00;100693.97;4995070;28;20076;-78
2022/07/14 04:32:14;;;;;;;3.05;2.10;;;19.60;94.00;;;19.76;100.00;100695.13;4986654;28;20070;-80
2022/07/14 04:34:41;;;;;;;2.22;1.98;;;19.60;93.80;;;19.80;100.00;100696.66;4955383;28;20049;-79
2022/07/14 04:37:08;;;;;;;5.63;2.28;;;20.20;94.10;;;19.88;100.00;100691.75;4971401;28;20046;-79
2022/07/14 04:39:35;;;;;;;4.28;2.00;;;19.60;94.00;;;19.93;100.00;100683.50;4956651;28;20035;-78
2022/07/14 04:42:04;;;;;;;4.60;2.38;;;19.70;93.60;;;19.96;100.00;100694.84;4966507;28;20057;-77
2022/07/14 04:44:34;;;;;;;2.90;2.47;;;19.70;93.50;;;20.02;100.00;100684.78;4976316;28;20038;-78
2022/07/14 04:47:01;;;;;;;3.90;2.33;;;19.70;93.50;;;20.01;100.00;100686.56;4973263;28;20050;-79
2022/07/14 04:52:15;;;;;;;4.75;2.42;;;19.80;93.20;;;20.08;100.00;100677.25;4987994;28;20146;-79
2022/07/14 04:54:58;;;;;;;6.00;2.08;;;19.80;93.10;;;20.15;100.00;100668.88;4967830;28;20046;-79
2022/07/14 04:57:33;;;;;;;4.72;2.35;;;19.90;93.10;;;20.23;100.00;100658.59;5006160;28;20273;-78
2022/07/14 05:00:04;;;;;;;;;;;19.90;93.30;;;20.36;100.00;100656.03;4989206;28;20066;-80
2022/07/14 05:02:32;;;;;;;4.47;2.72;;;20.00;93.40;;;20.35;100.00;100652.47;4979261;28;19926;-78
2022/07/14 05:05:00;;;;;;;4.78;2.55;;;20.00;93.70;;;20.38;100.00;100659.47;4995517;28;20051;-79
2022/07/14 05:07:27;;;;;;;5.85;2.67;;;20.10;93.80;;;20.47;100.00;100658.91;4978475;28;20053;-80
2022/07/14 05:09:56;;;;;;;3.15;2.05;;;20.10;93.80;;;20.52;100.00;100654.13;4980175;28;20826;-78
2022/07/14 05:12:26;;;;;;;4.50;2.50;;;20.10;93.70;;;20.57;100.00;100655.66;4984152;28;20047;-80
2022/07/14 05:14:54;;;;;;;6.53;2.70;;;20.20;93.70;;;20.62;100.00;100658.94;4949029;28;20046;-80
2022/07/14 05:17:22;;;;;;;6.28;2.47;;;20.30;93.40;;;20.63;100.00;100647.28;4963925;28;20114;-78
2022/07/14 05:20:01;;;;;;;5.50;2.72;;;20.30;93.40;;;20.67;100.00;100651.47;4951402;28;20642;-79
2022/07/14 05:22:42;;;;;;;6.43;2.55;;;20.40;93.20;;;20.79;100.00;100655.19;4964145;28;20559;-78
2022/07/14 05:25:13;;;;;;;3.92;2.53;;;20.40;93.10;;;20.76;100.00;100642.03;4981829;28;20051;-79
2022/07/14 05:27:41;;;;;;;9.00;2.80;;;20.40;93.00;;;20.73;100.00;100648.41;4983245;28;20479;-79
2022/07/14 05:30:21;;;;;;;4.28;2.40;;;20.50;92.70;;;20.70;100.00;100643.25;4968707;28;20059;-78
2022/07/14 05:32:48;;;;;;;6.32;2.60;;;20.50;92.70;;;20.70;100.00;100645.94;4960579;28;20435;-79
2022/07/14 05:35:15;;;;;;;5.35;2.35;;;20.50;92.70;;;20.80;100.00;100641.78;4960600;28;20050;-80
2022/07/14 05:37:42;;;;;;;5.57;2.25;;;20.60;92.60;;;20.93;100.00;100643.69;4975260;28;20073;-80
2022/07/14 05:40:10;;;;;;;7.38;2.63;;;20.60;92.60;;;20.98;100.00;100649.56;4959962;28;20039;-81
2022/07/14 05:42:38;;;;;;;12.70;2.67;;;20.70;92.70;;;21.12;100.00;100646.00;4959699;28;20043;-81
2022/07/14 05:45:07;;;;;;;4.32;2.28;;;20.70;92.60;;;21.24;100.00;100647.91;4960211;28;20053;-80
2022/07/14 05:47:34;;;;;;;8.02;2.70;;;20.90;92.40;;;21.30;100.00;100643.97;4963425;28;20533;-84
2022/07/14 05:50:02;;;;;;;6.60;2.60;;;20.90;92.50;;;21.39;100.00;100639.84;4978789;28;20050;-80
2022/07/14 05:52:30;;;;;;;3.60;2.30;;;21.00;92.40;;;21.45;100.00;100650.13;4979167;28;20050;-79
2022/07/14 05:54:59;;;;;;;5.25;2.30;;;21.10;92.30;;;21.54;100.00;100646.84;4979302;28;20097;-78
2022/07/14 05:57:28;;;;;;;13.75;3.30;;;21.10;92.20;;;21.54;100.00;100638.81;4979524;28;20507;-78
2022/07/14 05:59:55;;;;;;;5.32;2.50;;;21.20;92.00;;;21.52;100.00;100654.13;4979247;28;20124;-79
2022/07/14 06:02:22;;;;;;;4.93;2.28;;;21.20;91.90;;;21.39;100.00;100661.25;4977550;28;20043;-78
2022/07/14 06:04:49;;;;;;;4.30;2.50;;;21.30;91.80;;;21.53;100.00;100652.31;4959515;28;20581;-78
2022/07/14 06:07:16;;;;;;;5.10;2.40;;;21.40;91.80;;;21.52;100.00;100656.81;4975226;28;20073;-77
2022/07/14 06:09:50;;;;;;;5.70;2.60;;;21.40;91.80;;;21.60;100.00;100652.75;4976080;28;20039;-77
2022/07/14 06:12:19;;;;;;;3.63;2.47;;;21.40;91.80;;;21.60;100.00;100650.06;4961323;28;20066;-78
2022/07/14 06:14:46;;;;;;;4.95;2.80;;;21.50;91.80;;;21.68;100.00;100645.97;4976421;28;20050;-78
2022/07/14 06:17:14;;;;;;;4.78;2.67;;;21.50;91.80;;;21.68;100.00;100645.13;5008342;28;20105;-77
2022/07/14 06:19:42;;;;;;;6.38;3.05;;;21.50;91.80;;;22.01;100.00;100645.59;4975597;28;20054;-78
2022/07/14 06:22:09;;;;;;;3.08;2.55;;;21.50;91.70;;;21.96;100.00;100646.78;4975367;28;20101;-77
2022/07/14 06:24:41;;;;;;;2.92;2.33;;;21.70;91.70;;;21.99;100.00;100645.72;4975520;28;20042;-78
2022/07/14 06:27:17;;;;;;;;;;;21.70;91.50;;;22.05;100.00;100644.47;4977931;28;20053;-77
2022/07/14 06:29:46;;;;;;;3.40;2.78;;;21.80;91.30;;;22.17;100.00;100642.75;4975185;28;19928;-77
2022/07/14 06:32:13;;;;;;;4.03;2.75;;;21.90;91.20;;;22.31;100.00;100639.13;4971276;28;20056;-78
2022/07/14 06:34:42;;;;;;;5.25;3.42;;;21.90;91.30;;;22.37;100.00;100644.06;4955374;28;20050;-77
2022/07/14 06:37:35;;;;;;;4.30;2.47;;;22.00;91.20;;;22.61;100.00;100636.16;4959686;28;20102;-79
2022/07/14 06:40:06;;;;;;;6.18;2.75;;;22.20;91.20;;;22.54;100.00;100642.06;4959108;28;20424;-78
2022/07/14 06:42:37;;;;;;;3.22;2.47;;;22.30;91.00;;;22.55;100.00;100638.41;4958357;28;20050;-77
2022/07/14 06:45:15;;;;;;;7.47;2.65;;;22.30;90.60;;;22.68;100.00;100633.91;4971559;28;20141;-78
2022/07/14 06:47:44;;;;;;;5.07;2.47;;;22.40;90.50;;;22.84;100.00;100636.31;4969957;28;20435;-76
2022/07/14 06:50:12;;;;;;;5.05;2.63;;;22.50;90.70;;;22.87;100.00;100636.13;4970222;28;20086;-76
2022/07/14 06:52:39;;;;;;;8.27;2.97;;;22.50;90.40;;;22.95;100.00;100631.06;4970691;28;20133;-77
2022/07/14 06:55:07;;;;;;;4.05;2.63;;;22.60;90.30;;;23.11;100.00;100629.94;4971656;28;20046;-77
2022/07/14 06:57:34;;;;;;;5.65;2.75;;;22.70;90.10;;;23.06;100.00;100634.78;4988511;28;20377;-77
2022/07/14 07:00:05;;;;;;;4.50;2.83;;;22.80;89.60;;;23.18;100.00;100631.22;4985099;28;20044;-76
2022/07/14 07:02:35;;;;;;;3.90;2.83;;;22.90;90.00;;;23.19;100.00;100627.56;4992063;28;20121;-77
2022/07/14 07:07:51;;;;;;;2.90;2.60;;;23.00;89.20;;;23.28;99.95;100622.50;4992261;28;20218;-78
2022/07/14 07:10:18;;;;;;;7.40;2.75;;;23.00;88.90;;;23.38;97.66;100623.53;4978058;28;20042;-76
2022/07/14 07:12:45;;;;;;;6.90;3.08;;;23.00;88.40;;;23.40;94.18;100623.41;4980992;28;20074;-76
2022/07/14 07:15:13;;;;;;;3.63;2.55;;;23.10;87.60;;;23.53;94.31;100618.00;4974217;28;20125;-77
2022/07/14 07:17:40;;;;;;;5.00;3.03;;;23.20;87.70;;;23.65;96.33;100614.41;4971277;28;20042;-78
2022/07/14 07:20:09;;;;;;;4.65;2.70;;;23.20;88.20;;;23.76;95.62;100621.63;4976300;28;20535;-77
2022/07/14 07:22:37;;;;;;;6.22;2.67;;;23.40;88.00;;;23.86;96.67;100619.94;4989686;28;20146;-77
2022/07/14 07:25:07;;;;;;;6.82;2.95;;;23.50;88.20;;;23.98;96.21;100619.97;4973292;28;20046;-77
2022/07/14 07:27:35;;;;;;;6.45;2.80;;;23.50;88.10;;;23.95;92.41;100615.69;4988824;28;20129;-77
2022/07/14 07:30:03;;;;;;;4.22;2.65;;;23.60;87.10;;;23.96;93.39;100600.44;4988982;28;20701;-77
2022/07/14 07:32:30;;;;;;;4.50;3.42;;;23.60;87.00;;;24.03;88.76;100612.44;4989150;28;20073;-78
2022/07/14 07:34:57;;;;;;;3.03;2.72;;;23.60;86.10;;;24.11;85.01;100606.47;4991263;28;20074;-77
2022/07/14 07:37:24;;;;;;;3.90;2.90;;;23.80;85.20;;;24.19;86.39;100604.06;4967872;28;20195;-78
2022/07/14 07:39:57;;;;;;;3.20;2.67;;;23.80;85.50;;;24.31;83.98;100604.91;4954797;28;20137;-76
2022/07/14 07:42:25;;;;;;;4.07;2.70;;;23.90;84.90;;;24.38;82.90;100602.59;4966316;28;20097;-77
2022/07/14 07:44:53;;;;;;;7.43;2.63;;;24.00;84.80;;;24.38;82.79;100606.16;4970821;28;20046;-77
2022/07/14 07:47:20;;;;;;;4.35;2.55;;;24.00;84.40;;;24.48;80.33;100592.84;4965325;28;20045;-78
2022/07/14 07:49:47;;;;;;;6.82;2.88;;;24.10;84.00;;;24.58;78.12;100588.41;4986230;28;20070;-77
2022/07/14 07:52:14;;;;;;;7.63;3.03;;;24.20;83.60;;;24.70;78.76;100580.34;4986591;28;20389;-77
2022/07/14 07:54:44;;;;;;;4.22;2.78;;;24.30;83.60;;;24.84;77.50;100580.13;4986355;28;20050;-77
2022/07/14 07:57:31;;;;;;;3.95;2.63;;;24.40;83.40;;;24.91;71.53;100577.78;4969502;28;20046;-77
2022/07/14 07:59:58;;;;;;;6.55;3.13;;;24.40;81.80;;;25.02;73.32;100576.91;4969739;28;20050;-78
2022/07/14 08:02:26;;;;;;;6.00;2.50;;;24.70;82.20;;;25.05;74.46;100576.66;4985114;28;20049;-76
2022/07/14 08:04:53;;;;;;;3.70;2.88;;;24.70;82.20;;;25.23;75.12;100566.22;4969483;28;20047;-77
2022/07/14 08:07:20;;;;;;;6.45;3.78;;;24.80;82.50;;;25.43;72.51;100564.53;4986442;28;20431;-76
2022/07/14 08:09:48;;;;;;;3.22;2.45;;;24.90;81.90;;;25.54;71.95;100560.97;4985675;28;20141;-77
2022/07/14 08:12:20;;;;;;;4.47;3.08;;;25.10;81.70;;;25.65;70.48;100562.75;4989270;28;20522;-77
2022/07/14 08:14:47;;;;;;;5.03;2.45;;;25.20;81.30;;;25.77;70.63;100561.69;4991152;28;20077;-78
2022/07/14 08:17:20;;;;;;;10.10;3.03;;;25.30;81.40;;;25.84;70.86;100553.94;4978365;28;20054;-78
2022/07/14 08:19:48;;;;;;;6.82;2.53;;;25.30;81.40;;;25.95;70.30;100554.88;4971413;28;20051;-78
2022/07/14 08:22:22;;;;;;;4.18;2.28;;;25.40;81.10;;;26.11;64.01;100563.34;4953320;28;20146;-78
2022/07/14 08:24:49;;;;;;;6.18;2.63;;;25.60;79.50;;;26.25;61.98;100554.06;4952249;28;20051;-78
2022/07/14 08:27:16;;;;;;;4.85;2.70;;;25.70;79.00;;;26.29;65.08;100552.78;4952572;28;20049;-77
2022/07/14 08:29:43;;;;;;;4.93;2.95;;;25.80;79.70;;;26.27;62.00;100548.53;4968560;28;20051;-78
2022/07/14 08:32:10;;;;;;;4.05;2.80;;;25.80;78.50;;;26.41;62.89;100548.19;4971289;28;20038;-78
2022/07/14 08:34:37;;;;;;;4.30;2.45;;;25.90;78.90;;;26.54;60.07;100550.63;4955562;28;20046;-78
2022/07/14 08:37:05;;;;;;;3.20;2.50;;;26.00;78.00;;;26.67;59.08;100539.59;4955117;28;20047;-79
2022/07/14 08:39:32;;;;;;;6.15;2.70;;;26.10;77.70;;;26.78;56.28;100545.88;4972025;28;20066;-80
2022/07/14 08:42:01;;;;;;;11.23;3.03;;;26.20;76.60;;;26.83;54.54;100535.50;4960374;28;20046;-81
2022/07/14 08:44:29;;;;;;;6.00;2.58;;;26.40;75.80;;;26.82;55.21;100534.66;4959255;28;20047;-81
2022/07/14 08:46:56;;;;;;;4.35;2.33;;;26.40;75.90;;;26.92;53.44;100534.69;4971525;28;20703;-80
2022/07/14 08:49:24;;;;;;;3.20;2.15;;;26.40;75.10;;;26.97;53.57;100537.00;4978916;28;20479;-81
2022/07/14 08:52:11;;;;;;;4.63;2.33;;;26.50;75.00;;;26.96;54.21;100530.72;4967767;28;20042;-79
2022/07/14 08:54:40;;;;;;;3.30;2.45;;;26.50;75.00;;;27.08;51.88;100530.59;4977503;28;20042;-84
2022/07/14 08:57:07;;;;;;;4.55;2.90;;;26.60;73.90;;;27.12;54.09;100527.47;4994266;28;20137;-83
2022/07/14 08:59:34;;;;;;;4.53;2.60;;;26.60;74.80;;;27.37;49.77;100529.75;4977533;28;20066;-80
2022/07/14 09:02:01;;;;;;;3.78;2.00;;;26.80;73.00;;;27.40;50.52;100535.72;4976969;28;20118;-81
2022/07/14 09:04:29;;;;;;;4.22;2.50;;;26.90;73.30;;;27.50;49.61;100521.34;4992660;28;20137;-79
2022/07/14 09:06:57;;;;;;;6.70;2.20;;;27.00;72.80;;;27.51;50.73;100525.75;4976949;28;20050;-77
2022/07/14 09:09:34;;;;;;;6.65;2.65;;;27.00;73.20;;;27.71;47.48;100529.31;4987812;28;20050;-77
2022/07/14 09:12:05;;;;;;;6.47;2.30;;;27.20;71.60;;;27.71;46.38;100535.59;4972815;28;20050;-76
2022/07/14 09:17:56;;;;;;;3.47;2.50;;;27.30;69.90;;;28.07;44.60;100525.97;4944711;28;20494;-77
2022/07/14 09:20:33;;;;;;;5.10;2.60;;;27.50;69.50;;;28.07;46.82;100524.09;4984802;28;20039;-78
2022/07/14 09:23:02;;;;;;;5.85;2.55;;;27.50;70.60;;;28.13;46.23;100525.34;4968413;28;20399;-77
2022/07/14 09:25:37;;;;;;;6.30;2.70;;;27.60;70.00;;;28.10;44.47;100526.53;4971112;28;20066;-78
2022/07/14 09:28:08;;;;;;;4.28;1.88;;;27.70;68.70;;;28.02;44.46;100519.16;4955361;28;20038;-78
2022/07/14 09:30:35;;;;;;;4.53;1.70;;;27.70;68.40;;;28.03;43.94;100511.88;4971802;28;20047;-78
2022/07/14 09:33:04;;;;;;;4.93;2.15;;;27.60;67.80;;;28.14;46.46;100517.09;4971019;28;20055;-78
2022/07/14 09:35:34;;;;;;;2.63;2.10;;;27.60;69.20;;;28.10;47.98;100513.00;4971161;28;20133;-78
2022/07/14 09:38:19;;;;;;;;;;;27.60;70.20;;;28.21;51.41;100508.41;4972202;28;20123;-79
2022/07/14 09:40:50;;;;;;;5.72;2.78;;;27.70;71.80;;;28.21;52.75;100509.28;4972103;28;19972;-77
2022/07/14 09:43:19;;;;;;;3.50;2.63;;;27.70;72.40;;;28.26;55.89;100508.84;4987842;28;20056;-77
2022/07/14 09:45:50;;;;;;;4.13;2.65;;;27.70;73.50;;;28.31;52.61;100496.53;4988137;28;20048;-77
2022/07/14 09:48:20;;;;;;;5.95;2.83;;;27.70;72.20;;;28.25;53.65;100493.59;4987563;28;20150;-78
2022/07/14 09:50:59;;;;;;;2.90;2.33;;;27.70;72.40;;;28.28;53.88;100490.59;4971261;28;20507;-77
2022/07/14 09:53:36;;;;;;;3.60;2.70;;;27.80;72.30;;;28.19;52.21;100491.50;4956307;28;20856;-77
2022/07/14 09:56:09;;;;;;;3.90;2.70;;;27.70;71.70;;;28.29;53.11;100484.19;4988629;28;20096;-77
2022/07/14 09:58:56;;;;;;;8.57;2.63;;;27.70;72.00;;;28.43;53.12;100480.97;4976354;28;20101;-79
2022/07/14 10:01:27;;;;;;;5.45;2.70;;;27.80;72.50;;;28.61;51.11;100488.28;4996205;28;20101;-79
2022/07/14 10:03:55;;;;;;;4.68;2.25;;;27.90;71.60;;;28.80;52.47;100479.22;4995412;28;20049;-79
2022/07/14 10:06:23;;;;;;;4.75;2.33;;;28.10;72.40;;;28.93;50.80;100475.25;4993906;28;20045;-79
2022/07/14 10:09:05;;;;;;;5.32;2.40;;;28.20;71.60;;;29.13;50.49;100479.50;4950521;28;20057;-78
2022/07/14 10:11:33;;;;;;;5.93;2.50;;;28.40;71.60;;;29.15;50.35;100476.63;4985362;28;20419;-80
2022/07/14 10:14:00;;;;;;;4.85;2.83;;;28.50;71.50;;;29.22;51.28;100469.59;4984389;28;20181;-77
2022/07/14 10:16:35;;;;;;;7.65;2.92;;;28.50;71.90;;;29.32;52.32;100474.91;4986044;28;20047;-78
2022/07/14 10:19:04;;;;;;;4.03;2.70;;;28.60;72.30;;;29.58;50.57;100468.69;4982947;28;20039;-76
2022/07/14 10:21:41;;;;;;;4.05;1.92;;;28.70;71.70;;;29.98;43.64;100460.97;4986554;28;20113;-76
2022/07/14 10:24:09;;;;;;;3.67;2.78;;;29.00;68.20;;;30.04;48.54;100471.19;4964828;28;20038;-77
2022/07/14 10:26:37;;;;;;;5.60;2.63;;;29.30;70.90;;;30.14;48.16;100450.22;4962897;28;20256;-77
2022/07/14 10:29:07;;;;;;;5.30;3.00;;;29.40;70.60;;;30.21;49.38;100453.13;4962994;28;20584;-77
2022/07/14 10:32:18;;;;;;;4.35;2.78;;;29.50;71.30;;;30.33;47.52;100445.53;4980063;28;20054;-77
2022/07/14 10:35:24;;;;;;;3.22;2.50;;;29.60;70.40;;;30.53;48.14;100451.53;4980188;28;20522;-77
2022/07/14 10:37:53;;;;;;;5.00;2.72;;;29.80;70.80;;;30.55;47.21;100454.06;4982501;28;20042;-78
2022/07/14 10:40:54;;;;;;;5.70;2.35;;;29.90;70.00;;;30.48;47.68;100455.75;4986402;28;20134;-78
2022/07/14 10:43:24;;;;;;;6.53;2.60;;;29.90;69.70;;;30.54;48.00;100445.09;4972440;28;20043;-77
2022/07/14 10:45:54;;;;;;;7.30;3.17;;;29.90;70.10;;;30.62;49.71;100448.81;4978332;28;20074;-77
2022/07/14 10:48:37;;;;;;;3.72;2.80;;;30.00;70.90;;;30.83;48.40;100438.38;4982306;28;20125;-76
2022/07/14 10:51:21;;;;;;;8.98;3.00;;;30.10;70.40;;;31.04;47.68;100434.28;4987566;28;20536;-77
2022/07/14 10:54:08;;;;;;;5.20;2.92;;;30.20;70.20;;;31.12;50.02;100434.28;4973256;28;20070;-77
2022/07/14 10:57:27;;;;;;;4.63;3.20;;;30.30;71.30;;;31.39;45.33;100421.38;4990330;28;20046;-77
2022/07/14 10:59:55;;;;;;;7.70;2.40;;;30.50;69.20;;;31.51;43.42;100416.41;4958801;28;20439;-77
2022/07/14 11:02:25;;;;;;;6.50;3.20;;;30.70;68.00;;;31.33;42.62;100416.66;4990509;28;20113;-76
2022/07/14 11:04:59;;;;;;;6.30;2.22;;;30.80;66.70;;;31.44;41.61;100409.13;4990767;28;20118;-77
2022/07/14 11:07:52;;;;;;;4.75;2.50;;;30.80;66.30;;;31.83;42.00;100408.38;4989407;28;20492;-77